Terminal Aerodrome Forecast
Issued by NWS

Current Version | Previous Version | Text Only | Print | Product List | Glossary On
Versions: 1 2 3 4 5 6 7 8 9 10 11 12 13 14
000
FTUS43 KBIS 220500
TAFDIK
TAF
KDIK 220524Z 2206/2306 16006KT P6SM SKC
     FM221700 15015G22KT P6SM SKC
     FM230100 13008KT P6SM SCT150=

USA.gov is the U.S. government's official web portal to all federal, state and local government web resources and services.